Arthur Maersk — OXJH2 — position and weather

sailwx.info

Track history (hours):
 
Tides and Currents Weather Stations Pressure Air Temp Water Temp Dewpoint Dewpoint Depression Visibility Wind Speed Wind Dir Waves Ship Positions

Arthur Maersk

Last reported at 2014-Sep-14 07:33 UTC. Time now 2014-Sep-18 13:40 UTC.
Position N 30°32' E 122°41'.

Length 352 m; draft 13.8 m.

Type: Cargo ship. MMSI: 220221000.

Date/timePositionNaut miles runAvg speedWind from/ knotsBaromVisibWave heightAir tempDewpointWater temp
2014-Sep-14 07:33N 30°32' E 122°41'1818.1
2014-Sep-14 06:32N 30°32' E 122°19'1110.7
2014-Sep-14 05:33N 30°35' E 122°07'5 0.6
2014-Sep-13 21:33N 30°38' E 122°03'0 0.0
2014-Sep-13 20:31N 30°38' E 122°03'0 0.0
2014-Sep-13 19:29N 30°38' E 122°03'0 0.0
2014-Sep-13 18:29N 30°38' E 122°03'0 0.0
2014-Sep-13 15:26N 30°38' E 122°03'0 0.0
2014-Sep-13 14:32N 30°38' E 122°03'0 0.1
2014-Sep-13 13:29N 30°38' E 122°03'2 1.5
2014-Sep-13 12:30N 30°37' E 122°04'1111.4
2014-Sep-13 11:33N 30°34' E 122°16'7 6.9
2014-Sep-13 10:33N 30°33' E 122°24'1514.8
2014-Sep-13 09:33N 30°29' E 122°41'1515.5
2014-Sep-13 08:33N 30°21' E 122°56'38118.9
2014-Sep-12 12:25N 24°45' E 119°33'1921.6
2014-Sep-12 11:33N 24°33' E 119°17'2120.9
2014-Sep-12 10:33N 24°21' E 118°58'2020.4
2014-Sep-12 09:33N 24°08' E 118°41'2019.8
2014-Sep-12 08:33N 23°56' E 118°24'1918.8
2014-Sep-12 07:34N 23°45' E 118°08'1918.6
2014-Sep-12 06:33N 23°34' E 117°51'2019.9
2014-Sep-12 05:33N 23°22' E 117°34'2221.2
2014-Sep-12 04:32N 23°09' E 117°15'2521.2
2014-Sep-12 03:21N 22°55' E 116°52'15817.5
2014-Sep-11 18:19N 22°18' E 114°06'2 0.1
2014-Sep-10 11:14N 22°20' E 114°07'10 8.8
2014-Sep-10 10:09N 22°11' E 114°12'1110.5
2014-Sep-10 09:05N 22°11' E 114°24'  
2014-Sep-04 10:15N 01°15' E 104°06'811.8
2014-Sep-04 09:33N 01°14' E 103°58'1312.3
2014-Sep-04 08:32N 01°09' E 103°47'  
Track history (hours):
 
Tides and Currents Weather Stations Pressure Air Temp Water Temp Dewpoint Dewpoint Depression Visibility Wind Speed Wind Dir Waves Ship Positions

Arthur Maersk

Last reported at 2014-Sep-14 07:33 UTC. Time now 2014-Sep-18 13:40 UTC.
Position N 30°32' E 122°41'.

Length 352 m; draft 13.8 m.

Type: Cargo ship. MMSI: 220221000.

Date/timePositionNaut miles runAvg speedWind from/ knotsBaromVisibWave heightAir tempDewpointWater temp
2014-Sep-14 07:33N 30°32' E 122°41'1818.1
2014-Sep-14 06:32N 30°32' E 122°19'1110.7
2014-Sep-14 05:33N 30°35' E 122°07'5 0.6
2014-Sep-13 21:33N 30°38' E 122°03'0 0.0
2014-Sep-13 20:31N 30°38' E 122°03'0 0.0
2014-Sep-13 19:29N 30°38' E 122°03'0 0.0
2014-Sep-13 18:29N 30°38' E 122°03'0 0.0
2014-Sep-13 15:26N 30°38' E 122°03'0 0.0
2014-Sep-13 14:32N 30°38' E 122°03'0 0.1
2014-Sep-13 13:29N 30°38' E 122°03'2 1.5
2014-Sep-13 12:30N 30°37' E 122°04'1111.4
2014-Sep-13 11:33N 30°34' E 122°16'7 6.9
2014-Sep-13 10:33N 30°33' E 122°24'1514.8
2014-Sep-13 09:33N 30°29' E 122°41'1515.5
2014-Sep-13 08:33N 30°21' E 122°56'38118.9
2014-Sep-12 12:25N 24°45' E 119°33'1921.6
2014-Sep-12 11:33N 24°33' E 119°17'2120.9
2014-Sep-12 10:33N 24°21' E 118°58'2020.4
2014-Sep-12 09:33N 24°08' E 118°41'2019.8
2014-Sep-12 08:33N 23°56' E 118°24'1918.8
2014-Sep-12 07:34N 23°45' E 118°08'1918.6
2014-Sep-12 06:33N 23°34' E 117°51'2019.9
2014-Sep-12 05:33N 23°22' E 117°34'2221.2
2014-Sep-12 04:32N 23°09' E 117°15'2521.2
2014-Sep-12 03:21N 22°55' E 116°52'15817.5
2014-Sep-11 18:19N 22°18' E 114°06'2 0.1
2014-Sep-10 11:14N 22°20' E 114°07'10 8.8
2014-Sep-10 10:09N 22°11' E 114°12'1110.5
2014-Sep-10 09:05N 22°11' E 114°24'  
2014-Sep-04 10:15N 01°15' E 104°06'811.8
2014-Sep-04 09:33N 01°14' E 103°58'1312.3
2014-Sep-04 08:32N 01°09' E 103°47'  

Dump ship's entire track history